Time;durP1;ratioP1;P1;durP2;ratioP2;P2;SDS_P1;SDS_P2;PMS_P1;PMS_P2;Temp;Humidity;BMP_temperature;BMP_pressure;BME280_temperature;BME280_humidity;BME280_pressure;Samples;Min_cycle;Max_cycle;Signal;HPM_P1;HPM_P2
2023/02/27 00:00:58;;;;;;;6.00;2.00;;;4.20;99.90;;;;;;6247972;22;19996;-85
2023/02/27 00:03:24;;;;;;;7.65;2.50;;;4.20;99.90;;;;;;6247508;23;20012;-88
2023/02/27 00:05:50;;;;;;;5.15;2.25;;;4.20;99.90;;;;;;6246129;23;20016;-90
2023/02/27 00:08:15;;;;;;;6.15;3.10;;;4.20;99.90;;;;;;6274442;22;20019;-88
2023/02/27 00:10:41;;;;;;;9.50;2.70;;;4.20;99.90;;;;;;6274651;22;20040;-88
2023/02/27 00:13:07;;;;;;;6.97;2.92;;;4.10;99.90;;;;;;6248411;22;20019;-88
2023/02/27 00:15:32;;;;;;;8.90;3.38;;;4.10;99.90;;;;;;6273928;22;20001;-91
2023/02/27 00:17:59;;;;;;;6.32;2.75;;;4.10;99.90;;;;;;6274670;22;20019;-88
2023/02/27 00:20:25;;;;;;;5.30;2.50;;;4.00;99.90;;;;;;6274609;22;20015;-88
2023/02/27 00:22:50;;;;;;;6.18;2.78;;;4.00;99.90;;;;;;6274604;22;19993;-86
2023/02/27 00:25:17;;;;;;;5.93;2.10;;;4.00;99.90;;;;;;6248379;22;20003;-87
2023/02/27 00:27:46;;;;;;;4.93;2.38;;;4.00;99.90;;;;;;6248480;23;20060;-86
2023/02/27 00:30:14;;;;;;;4.13;2.33;;;4.00;99.90;;;;;;6274680;22;20005;-85
2023/02/27 00:32:40;;;;;;;6.43;2.65;;;4.00;99.90;;;;;;6274506;22;20002;-88
2023/02/27 00:35:07;;;;;;;5.78;2.90;;;4.00;99.90;;;;;;6247893;22;20005;-87
2023/02/27 00:37:33;;;;;;;5.60;2.15;;;4.00;99.90;;;;;;6273907;22;20007;-87
2023/02/27 00:40:00;;;;;;;8.77;2.08;;;4.00;99.90;;;;;;6274025;22;20004;-87
2023/02/27 00:42:27;;;;;;;9.80;2.72;;;4.00;99.90;;;;;;6247747;22;20001;-89
2023/02/27 00:44:53;;;;;;;6.80;3.08;;;4.00;99.90;;;;;;6247491;22;20071;-88
2023/02/27 00:47:19;;;;;;;10.55;3.30;;;4.00;99.90;;;;;;6271162;23;20015;-89
2023/02/27 00:49:45;;;;;;;7.75;2.90;;;4.00;99.90;;;;;;6271491;23;20035;-91
2023/02/27 00:52:10;;;;;;;8.45;3.13;;;4.00;99.90;;;;;;6266175;23;20012;-92
2023/02/27 00:54:36;;;;;;;8.85;3.33;;;4.10;99.90;;;;;;6242507;23;20031;-91
2023/02/27 00:57:02;;;;;;;10.77;3.17;;;4.10;99.90;;;;;;6272456;23;20012;-93
2023/02/27 00:59:27;;;;;;;6.10;2.75;;;4.10;99.90;;;;;;6245842;23;20003;-91
2023/02/27 01:01:53;;;;;;;8.52;2.22;;;4.10;99.90;;;;;;6246728;23;20020;-89
2023/02/27 01:04:19;;;;;;;9.98;2.17;;;4.10;99.90;;;;;;6273705;22;19988;-87
2023/02/27 01:06:44;;;;;;;4.68;2.10;;;4.10;99.90;;;;;;6247527;23;20026;-87
2023/02/27 01:09:10;;;;;;;10.13;2.42;;;4.10;99.90;;;;;;6273929;22;20011;-89
2023/02/27 01:11:36;;;;;;;4.75;2.28;;;4.20;99.90;;;;;;6247628;22;20012;-89
2023/02/27 01:14:01;;;;;;;6.80;2.20;;;4.10;99.90;;;;;;6247724;22;20008;-87
2023/02/27 01:16:27;;;;;;;10.48;2.50;;;4.10;99.90;;;;;;6247087;23;20043;-93
2023/02/27 01:18:53;;;;;;;6.40;2.17;;;4.10;99.90;;;;;;6244721;23;20016;-93
2023/02/27 01:21:19;;;;;;;9.95;2.80;;;4.10;99.90;;;;;;6246090;23;20004;-87
2023/02/27 01:23:45;;;;;;;11.95;2.80;;;4.10;99.90;;;;;;6247080;22;19997;-90
2023/02/27 01:26:11;;;;;;;12.05;2.85;;;4.10;99.90;;;;;;6273634;22;20011;-89
2023/02/27 01:28:36;;;;;;;7.68;2.20;;;4.10;99.90;;;;;;6273569;22;20038;-85
2023/02/27 01:31:02;;;;;;;9.00;2.40;;;4.00;99.90;;;;;;6273277;22;20004;-91
2023/02/27 01:33:30;;;;;;;8.50;2.40;;;4.00;99.90;;;;;;6273810;22;20023;-85
2023/02/27 01:35:56;;;;;;;10.32;2.80;;;4.00;99.90;;;;;;6248372;23;20027;-89
2023/02/27 01:38:21;;;;;;;8.98;2.78;;;3.90;99.90;;;;;;6248253;23;20008;-89
2023/02/27 01:40:47;;;;;;;7.60;2.88;;;3.90;99.90;;;;;;6247811;23;19996;-87
2023/02/27 01:43:18;;;;;;;9.55;2.78;;;3.90;99.90;;;;;;6247922;22;20038;-87
2023/02/27 01:45:47;;;;;;;10.48;2.95;;;3.80;99.90;;;;;;6248561;23;20008;-84
2023/02/27 01:48:13;;;;;;;6.03;3.55;;;3.80;99.90;;;;;;6274669;22;19999;-89
2023/02/27 01:50:56;;;;;;;8.85;3.60;;;3.70;99.90;;;;;;6274040;22;19988;-94
2023/02/27 01:53:25;;;;;;;8.35;3.22;;;3.70;99.90;;;;;;6270818;23;20056;-87
2023/02/27 01:55:57;;;;;;;10.25;3.70;;;3.70;99.90;;;;;;6248385;23;20004;-95
2023/02/27 01:58:23;;;;;;;10.40;3.20;;;3.60;99.90;;;;;;6248449;22;19996;-86
2023/02/27 02:00:48;;;;;;;8.73;3.05;;;3.60;99.90;;;;;;6274116;22;19999;-92
2023/02/27 02:03:57;;;;;;;10.77;3.28;;;3.60;99.90;;;;;;6273168;22;19992;-92
2023/02/27 02:06:23;;;;;;;7.65;3.22;;;3.60;99.90;;;;;;6246527;23;20038;-91
2023/02/27 02:08:51;;;;;;;9.27;3.30;;;3.50;99.90;;;;;;6274268;22;19992;-89
2023/02/27 02:11:19;;;;;;;12.52;3.00;;;3.60;99.90;;;;;;6247961;22;20020;-85
2023/02/27 02:13:49;;;;;;;8.13;3.00;;;3.60;99.90;;;;;;6246795;23;20028;-84
2023/02/27 02:16:27;;;;;;;14.32;2.78;;;3.60;99.90;;;;;;6246854;22;19996;-86
2023/02/27 02:18:59;;;;;;;8.27;3.10;;;3.60;99.90;;;;;;6246634;22;19997;-88
2023/02/27 02:21:50;;;;;;;3.83;2.20;;;3.60;99.90;;;;;;6246060;22;20003;-86
2023/02/27 02:24:18;;;;;;;;;;;3.60;99.90;;;;;;6273089;22;20015;-85
2023/02/27 02:27:02;;;;;;;10.43;3.42;;;3.60;99.90;;;;;;6272606;22;19926;-85
2023/02/27 02:29:52;;;;;;;4.85;2.63;;;3.60;99.90;;;;;;6246581;23;19996;-86
2023/02/27 02:33:09;;;;;;;10.70;2.65;;;3.70;99.90;;;;;;6246527;23;19995;-87
2023/02/27 02:36:09;;;;;;;5.43;2.75;;;3.70;99.90;;;;;;6246342;22;20020;-87
2023/02/27 02:38:40;;;;;;;5.68;3.30;;;3.70;99.90;;;;;;6246495;23;19999;-84
2023/02/27 02:41:41;;;;;;;11.15;2.70;;;3.70;99.90;;;;;;6272494;22;20043;-85
2023/02/27 02:44:19;;;;;;;6.05;2.13;;;3.70;99.90;;;;;;6272551;22;20044;-85
2023/02/27 02:47:06;;;;;;;9.00;2.72;;;3.70;99.90;;;;;;6246282;22;20003;-86
2023/02/27 02:49:46;;;;;;;7.22;2.55;;;3.70;99.90;;;;;;6246314;23;20004;-87
2023/02/27 02:52:25;;;;;;;5.35;2.15;;;3.70;99.90;;;;;;6246662;23;20004;-86
2023/02/27 02:54:57;;;;;;;7.35;2.67;;;3.70;99.90;;;;;;6272301;22;20027;-87
2023/02/27 02:57:32;;;;;;;5.30;2.55;;;3.70;99.90;;;;;;6272181;22;19996;-87
2023/02/27 03:00:05;;;;;;;3.50;2.50;;;3.70;99.90;;;;;;6246077;22;20009;-85
2023/02/27 03:02:36;;;;;;;4.68;2.80;;;3.70;99.90;;;;;;6246337;23;19996;-87
2023/02/27 03:05:07;;;;;;;8.13;3.22;;;3.60;99.90;;;;;;6246066;22;20003;-87
2023/02/27 03:07:46;;;;;;;5.70;2.80;;;3.60;99.90;;;;;;6247206;22;19996;-87
2023/02/27 03:10:41;;;;;;;4.57;2.67;;;3.60;99.90;;;;;;6273438;22;20054;-85
2023/02/27 03:13:20;;;;;;;3.80;2.95;;;3.60;99.90;;;;;;6198554;22;1161489;-86
2023/02/27 03:16:00;;;;;;;8.07;2.60;;;3.50;99.90;;;;;;6275031;22;20023;-86
2023/02/27 03:18:32;;;;;;;5.47;2.70;;;3.50;99.90;;;;;;6275026;22;19992;-87
2023/02/27 03:21:02;;;;;;;5.32;2.88;;;3.50;99.90;;;;;;6248949;22;19992;-87
2023/02/27 03:23:39;;;;;;;5.32;2.47;;;3.50;99.90;;;;;;6274878;22;19988;-86
2023/02/27 03:26:07;;;;;;;11.07;3.63;;;3.50;99.90;;;;;;6248742;22;20016;-87
2023/02/27 03:28:39;;;;;;;7.50;3.33;;;3.40;99.90;;;;;;6274939;22;20015;-87
2023/02/27 03:31:14;;;;;;;5.20;2.70;;;3.40;99.90;;;;;;6275080;22;20036;-86
2023/02/27 03:33:45;;;;;;;5.45;3.13;;;3.40;99.90;;;;;;6248661;22;20011;-87
2023/02/27 03:36:18;;;;;;;6.47;3.42;;;3.40;99.90;;;;;;6248431;23;20016;-86
2023/02/27 03:39:23;;;;;;;3.80;2.90;;;3.40;99.90;;;;;;6248813;23;19995;-87
2023/02/27 03:42:18;;;;;;;8.20;2.85;;;3.40;99.90;;;;;;6248765;22;20003;-85
2023/02/27 03:44:53;;;;;;;6.18;2.70;;;3.30;99.90;;;;;;6203235;22;19992;-86
2023/02/27 03:47:20;;;;;;;6.18;3.42;;;3.40;99.90;;;;;;6248717;23;20006;-87
2023/02/27 03:49:45;;;;;;;5.35;3.00;;;3.30;99.90;;;;;;6274816;22;20011;-86
2023/02/27 03:52:11;;;;;;;8.30;3.67;;;3.40;99.90;;;;;;6248655;22;19996;-87
2023/02/27 03:54:46;;;;;;;5.90;2.92;;;3.40;99.90;;;;;;6248496;22;20051;-88
2023/02/27 03:57:14;;;;;;;7.15;3.50;;;3.40;99.90;;;;;;6248876;22;20000;-86
2023/02/27 03:59:40;;;;;;;4.47;3.00;;;3.40;99.90;;;;;;6248887;23;20047;-87
2023/02/27 04:02:06;;;;;;;6.13;3.03;;;3.40;99.90;;;;;;6248370;22;19988;-86
2023/02/27 04:04:32;;;;;;;6.60;3.38;;;3.40;99.90;;;;;;6274622;22;20008;-88
2023/02/27 04:07:30;;;;;;;11.27;3.38;;;3.40;99.90;;;;;;6274548;22;20039;-87
2023/02/27 04:10:33;;;;;;;6.10;3.60;;;3.50;99.90;;;;;;6238286;22;20015;-87
2023/02/27 04:13:05;;;;;;;5.22;3.45;;;3.50;99.90;;;;;;6274645;22;20000;-87
2023/02/27 04:15:50;;;;;;;6.53;3.58;;;3.50;99.90;;;;;;6248540;22;20013;-85
2023/02/27 04:18:43;;;;;;;5.63;3.50;;;3.50;99.90;;;;;;6248912;22;19992;-85
2023/02/27 04:21:48;;;;;;;5.65;3.80;;;3.50;99.90;;;;;;6248893;22;19984;-86
2023/02/27 04:24:36;;;;;;;8.68;3.28;;;3.50;99.90;;;;;;6273814;22;20038;-88
2023/02/27 04:27:16;;;;;;;6.00;3.42;;;3.50;99.90;;;;;;6248720;22;20030;-86
2023/02/27 04:29:54;;;;;;;7.72;3.30;;;3.50;99.90;;;;;;6274708;22;20034;-87
2023/02/27 04:32:40;;;;;;;5.63;3.45;;;3.60;99.90;;;;;;6248388;23;20004;-85
2023/02/27 04:35:24;;;;;;;6.75;2.85;;;3.60;99.90;;;;;;6248677;23;19996;-85
2023/02/27 04:38:00;;;;;;;7.63;3.15;;;3.60;99.90;;;;;;6274818;22;20008;-84
2023/02/27 04:40:41;;;;;;;8.70;3.28;;;3.60;99.90;;;;;;6274816;22;20028;-83
2023/02/27 04:43:09;;;;;;;6.80;3.60;;;3.60;99.90;;;;;;6274700;22;19989;-87
2023/02/27 04:45:37;;;;;;;4.43;2.08;;;3.70;99.90;;;;;;6248018;22;20004;-85
2023/02/27 04:48:28;;;;;;;3.65;2.55;;;3.70;99.90;;;;;;6248354;22;20012;-84
2023/02/27 04:51:04;;;;;;;5.93;2.97;;;3.70;99.90;;;;;;6232734;23;19993;-88
2023/02/27 04:53:42;;;;;;;7.88;2.80;;;3.70;99.90;;;;;;6274253;22;19988;-86
2023/02/27 04:56:30;;;;;;;5.40;2.80;;;3.70;99.90;;;;;;6248499;22;20261;-85
2023/02/27 04:59:02;;;;;;;5.47;2.40;;;3.70;99.90;;;;;;6248530;22;19992;-87
2023/02/27 05:01:37;;;;;;;5.07;2.65;;;3.70;99.90;;;;;;6248682;22;19996;-84
2023/02/27 05:04:06;;;;;;;5.22;2.38;;;3.70;99.90;;;;;;6274874;22;19997;-86
2023/02/27 05:06:36;;;;;;;5.18;2.40;;;3.70;99.90;;;;;;6274960;22;20013;-85
2023/02/27 05:09:02;;;;;;;5.40;3.47;;;3.70;99.90;;;;;;6275143;22;20031;-87
2023/02/27 05:11:37;;;;;;;7.18;2.90;;;3.70;99.90;;;;;;6248701;22;20003;-86
2023/02/27 05:14:11;;;;;;;6.38;3.10;;;3.70;99.90;;;;;;6249134;22;20072;-87
2023/02/27 05:16:36;;;;;;;4.97;2.80;;;3.70;99.90;;;;;;6249259;22;20023;-86
2023/02/27 05:19:03;;;;;;;4.65;2.35;;;3.80;99.90;;;;;;6275071;22;20020;-87
2023/02/27 05:21:38;;;;;;;2.63;2.13;;;3.80;99.90;;;;;;6247807;23;20000;-86
2023/02/27 05:24:42;;;;;;;5.28;2.22;;;3.90;99.90;;;;;;6249196;22;20018;-86
2023/02/27 05:27:19;;;;;;;2.83;1.83;;;4.00;99.90;;;;;;6123991;23;20034;-86
2023/02/27 05:29:48;;;;;;;2.50;1.88;;;4.10;99.90;;;;;;6099829;23;20030;-86
2023/02/27 05:32:39;;;;;;;3.88;2.00;;;4.10;99.90;;;;;;6123938;23;20002;-88
2023/02/27 05:35:42;;;;;;;6.43;2.30;;;4.10;99.90;;;;;;6100316;23;20006;-85
2023/02/27 05:38:07;;;;;;;4.43;2.17;;;4.10;99.90;;;;;;6100343;23;20033;-87
2023/02/27 05:41:02;;;;;;;7.20;2.03;;;4.00;99.90;;;;;;6123892;23;19987;-86
2023/02/27 05:43:37;;;;;;;4.63;2.20;;;4.00;99.90;;;;;;6101790;23;19994;-85
2023/02/27 05:46:08;;;;;;;2.78;1.35;;;4.00;99.90;;;;;;6123606;23;20026;-86
2023/02/27 05:48:43;;;;;;;5.35;2.05;;;4.10;99.90;;;;;;6100045;23;19998;-85
2023/02/27 05:51:12;;;;;;;11.63;3.15;;;4.00;99.90;;;;;;6100037;23;20101;-86
2023/02/27 05:53:42;;;;;;;6.15;2.10;;;4.00;99.90;;;;;;6124144;23;20001;-86
2023/02/27 05:56:14;;;;;;;4.78;1.90;;;3.90;99.90;;;;;;6123877;23;20028;-86
2023/02/27 05:58:46;;;;;;;6.85;2.20;;;3.90;99.90;;;;;;6124150;23;19995;-86
2023/02/27 06:01:11;;;;;;;12.35;3.83;;;4.00;99.90;;;;;;6099398;23;20018;-87
2023/02/27 06:03:39;;;;;;;5.22;2.15;;;3.90;99.90;;;;;;6236758;22;20027;-87
2023/02/27 06:06:10;;;;;;;3.72;1.67;;;3.90;99.90;;;;;;6274691;22;19996;-86
2023/02/27 06:08:36;;;;;;;5.63;1.77;;;3.90;99.90;;;;;;6248624;22;20024;-86
2023/02/27 06:11:01;;;;;;;8.13;2.08;;;3.90;99.90;;;;;;6248218;23;20004;-86
2023/02/27 06:13:27;;;;;;;5.10;1.95;;;3.90;99.90;;;;;;6274159;22;20012;-88
2023/02/27 06:15:53;;;;;;;9.55;2.22;;;3.90;99.90;;;;;;6248368;22;20000;-88
2023/02/27 06:18:20;;;;;;;7.68;2.20;;;3.90;99.90;;;;;;6248301;22;19999;-88
2023/02/27 06:20:46;;;;;;;8.88;2.35;;;3.90;99.90;;;;;;6248507;23;19992;-88
2023/02/27 06:23:12;;;;;;;6.60;2.28;;;3.90;99.90;;;;;;6248380;23;19992;-87
2023/02/27 06:25:38;;;;;;;5.18;2.25;;;3.90;99.90;;;;;;6248187;23;20031;-85
2023/02/27 06:28:05;;;;;;;4.82;1.95;;;3.90;99.90;;;;;;6274574;22;19988;-86
2023/02/27 06:30:30;;;;;;;7.43;2.30;;;3.90;99.90;;;;;;6274459;22;19988;-87
2023/02/27 06:32:56;;;;;;;5.78;2.17;;;3.90;99.90;;;;;;6247550;22;19997;-88
2023/02/27 06:35:22;;;;;;;5.50;2.22;;;3.90;99.90;;;;;;6273619;22;20048;-86
2023/02/27 06:37:47;;;;;;;3.45;2.05;;;3.90;99.90;;;;;;6248048;23;19999;-87
2023/02/27 06:40:13;;;;;;;5.13;2.20;;;3.90;99.90;;;;;;6273626;22;20003;-86
2023/02/27 06:42:41;;;;;;;4.45;1.83;;;3.80;99.90;;;;;;6273802;22;20015;-87
2023/02/27 06:45:08;;;;;;;7.97;3.15;;;3.80;99.90;;;;;;6247607;23;19992;-88
2023/02/27 06:47:34;;;;;;;4.05;1.70;;;3.80;99.90;;;;;;6247280;23;20084;-88
2023/02/27 06:50:00;;;;;;;3.90;2.08;;;3.80;99.90;;;;;;6273413;22;19988;-85
2023/02/27 06:52:26;;;;;;;3.70;1.77;;;3.90;99.90;;;;;;6273623;22;20019;-85
2023/02/27 06:54:52;;;;;;;3.10;2.00;;;3.90;99.90;;;;;;6248298;22;19998;-89
2023/02/27 06:57:18;;;;;;;4.03;2.20;;;3.90;99.90;;;;;;6246139;23;20004;-94
2023/02/27 06:59:44;;;;;;;9.68;2.25;;;3.90;99.90;;;;;;6259965;23;20000;-93
2023/02/27 07:02:12;;;;;;;3.45;2.20;;;3.90;99.90;;;;;;6237514;23;20004;-93
2023/02/27 07:04:37;;;;;;;5.82;2.25;;;3.90;99.90;;;;;;6235472;23;20007;-93
2023/02/27 07:07:03;;;;;;;9.15;2.00;;;3.90;99.90;;;;;;6238535;22;20020;-93
2023/02/27 07:09:29;;;;;;;4.07;1.85;;;3.90;99.90;;;;;;6246101;23;20035;-92
2023/02/27 07:11:55;;;;;;;5.32;1.85;;;3.90;99.90;;;;;;6240747;23;20014;-89
2023/02/27 07:14:21;;;;;;;9.55;2.22;;;3.90;99.90;;;;;;6269687;23;20007;-87
2023/02/27 07:16:49;;;;;;;5.00;2.20;;;3.90;99.90;;;;;;6241438;23;19996;-90
2023/02/27 07:19:17;;;;;;;5.47;2.60;;;3.90;99.90;;;;;;6272616;22;20438;-91
2023/02/27 07:21:43;;;;;;;7.38;1.83;;;3.90;99.90;;;;;;6246432;22;20030;-88
2023/02/27 07:24:09;;;;;;;11.20;2.22;;;3.90;99.90;;;;;;6245214;23;20012;-91
2023/02/27 07:26:35;;;;;;;7.00;2.47;;;3.90;99.90;;;;;;6242075;23;20004;-90
2023/02/27 07:29:00;;;;;;;6.50;2.10;;;3.90;99.90;;;;;;6269710;23;20004;-92
2023/02/27 07:31:26;;;;;;;6.75;1.95;;;3.90;99.90;;;;;;6271933;22;20015;-94
2023/02/27 07:33:52;;;;;;;5.30;2.20;;;3.90;99.90;;;;;;6242924;23;20000;-89
2023/02/27 07:36:17;;;;;;;3.78;2.17;;;3.90;99.90;;;;;;6240600;23;20028;-94
2023/02/27 07:38:43;;;;;;;4.35;2.20;;;4.00;99.90;;;;;;6267474;23;20004;-92
2023/02/27 07:41:08;;;;;;;8.07;2.13;;;4.00;99.90;;;;;;6241237;23;20012;-92
2023/02/27 07:43:34;;;;;;;4.63;2.10;;;4.00;99.90;;;;;;6244147;23;20003;-89
2023/02/27 07:46:02;;;;;;;3.50;2.20;;;4.00;99.90;;;;;;6244357;23;20007;-89
2023/02/27 07:48:29;;;;;;;5.00;1.80;;;4.00;99.90;;;;;;6243068;23;20011;-88
2023/02/27 07:50:54;;;;;;;9.80;2.80;;;4.00;99.90;;;;;;6245897;22;20047;-85
2023/02/27 07:53:20;;;;;;;5.25;2.70;;;4.00;99.90;;;;;;6247659;22;20000;-85
2023/02/27 07:55:46;;;;;;;4.68;2.03;;;4.00;99.90;;;;;;6248561;22;20056;-86
2023/02/27 07:58:11;;;;;;;11.10;3.00;;;4.00;99.90;;;;;;6247209;22;20040;-88
2023/02/27 08:00:37;;;;;;;3.22;1.90;;;4.00;99.90;;;;;;6248484;22;20015;-87
2023/02/27 08:03:03;;;;;;;9.05;3.15;;;4.10;99.90;;;;;;6232472;23;20004;-93
2023/02/27 08:05:28;;;;;;;7.40;1.60;;;4.10;99.90;;;;;;6230264;23;20008;-93
2023/02/27 08:07:54;;;;;;;3.88;1.92;;;4.10;99.90;;;;;;6226252;23;20004;-93
2023/02/27 08:10:20;;;;;;;3.83;1.77;;;4.10;99.90;;;;;;6228162;23;20062;-95
2023/02/27 08:12:46;;;;;;;7.13;2.03;;;4.10;99.90;;;;;;6222912;23;20067;-94
2023/02/27 08:15:12;;;;;;;7.78;1.70;;;4.10;99.90;;;;;;6247978;23;20008;-94
2023/02/27 08:17:37;;;;;;;3.80;2.10;;;4.10;99.90;;;;;;6220285;23;20004;-93
2023/02/27 08:20:04;;;;;;;3.17;1.55;;;4.20;99.90;;;;;;6220915;23;20011;-94
2023/02/27 08:22:31;;;;;;;7.18;2.13;;;4.20;99.90;;;;;;6222828;23;20032;-94
2023/02/27 08:24:56;;;;;;;7.95;1.88;;;4.20;99.90;;;;;;6223136;23;20008;-94
2023/02/27 08:27:23;;;;;;;4.95;1.45;;;4.30;99.90;;;;;;6262765;23;20068;-95
2023/02/27 08:29:48;;;;;;;3.72;1.52;;;4.20;99.90;;;;;;6229297;23;20000;-95
2023/02/27 08:32:14;;;;;;;6.13;2.10;;;4.30;99.90;;;;;;6228430;23;20008;-95
2023/02/27 08:34:40;;;;;;;6.40;1.95;;;4.30;99.90;;;;;;6261456;23;20007;-93
2023/02/27 08:37:05;;;;;;;5.47;1.50;;;4.40;99.90;;;;;;6236799;23;20005;-96
2023/02/27 08:39:31;;;;;;;7.10;2.00;;;4.40;99.90;;;;;;6222426;23;20004;-96
2023/02/27 08:41:57;;;;;;;6.45;2.33;;;4.50;99.90;;;;;;6248369;23;20126;-95
2023/02/27 08:44:23;;;;;;;4.80;2.28;;;4.60;99.90;;;;;;6250331;23;20001;-95
2023/02/27 08:46:49;;;;;;;7.03;2.25;;;4.60;99.90;;;;;;6222794;23;20008;-94
2023/02/27 08:49:14;;;;;;;6.35;2.33;;;4.60;99.90;;;;;;6257332;23;20007;-93
2023/02/27 08:51:40;;;;;;;4.47;2.00;;;4.70;99.90;;;;;;6220967;23;20008;-93
2023/02/27 08:54:06;;;;;;;3.25;1.77;;;4.70;99.90;;;;;;6220992;23;20005;-93
2023/02/27 08:56:33;;;;;;;3.30;1.95;;;4.70;99.90;;;;;;6220889;23;20053;-90
2023/02/27 08:59:00;;;;;;;2.78;1.70;;;4.70;99.90;;;;;;6221227;23;20008;-92
2023/02/27 09:01:30;;;;;;;2.95;1.90;;;4.80;99.90;;;;;;6196186;23;20011;-91
2023/02/27 09:03:55;;;;;;;4.30;1.92;;;4.80;99.90;;;;;;6220610;23;20091;-90
2023/02/27 09:06:21;;;;;;;2.63;1.63;;;4.80;99.90;;;;;;6220663;23;20044;-92
2023/02/27 09:08:47;;;;;;;4.50;1.75;;;4.80;99.90;;;;;;6225204;23;20004;-93
2023/02/27 09:11:13;;;;;;;3.33;1.70;;;4.90;99.90;;;;;;6223120;23;20087;-91
2023/02/27 09:13:39;;;;;;;2.25;1.30;;;4.90;99.90;;;;;;6238446;23;20016;-92
2023/02/27 09:16:05;;;;;;;4.38;1.60;;;5.00;99.90;;;;;;6224328;23;20011;-91
2023/02/27 09:18:31;;;;;;;2.08;1.70;;;5.10;99.90;;;;;;6220981;23;20027;-94
2023/02/27 09:20:57;;;;;;;2.75;1.25;;;5.10;99.90;;;;;;6222249;23;20008;-92
2023/02/27 09:23:22;;;;;;;1.40;1.30;;;5.20;99.90;;;;;;6223181;23;20011;-91
2023/02/27 09:25:48;;;;;;;3.15;1.05;;;5.20;99.90;;;;;;6221825;23;20044;-91
2023/02/27 09:28:14;;;;;;;2.35;1.02;;;5.30;99.90;;;;;;6196191;23;20540;-92
2023/02/27 09:30:43;;;;;;;4.30;1.10;;;5.30;99.90;;;;;;6222490;23;20375;-94
2023/02/27 09:33:08;;;;;;;2.75;1.40;;;5.30;99.90;;;;;;6220962;23;20004;-94
2023/02/27 09:35:34;;;;;;;3.78;1.95;;;5.30;99.90;;;;;;6220363;23;20004;-94
2023/02/27 09:38:00;;;;;;;1.90;1.42;;;5.30;99.90;;;;;;6220399;23;20012;-94
2023/02/27 09:40:29;;;;;;;10.02;1.95;;;5.40;99.90;;;;;;6219732;23;20034;-93
2023/02/27 09:43:05;;;;;;;5.03;1.38;;;5.40;99.90;;;;;;6220423;23;20007;-92
2023/02/27 09:45:37;;;;;;;6.30;1.63;;;5.40;99.90;;;;;;6220139;23;20007;-94
2023/02/27 09:48:14;;;;;;;4.60;1.50;;;5.40;99.90;;;;;;6220259;23;20027;-93
2023/02/27 09:50:44;;;;;;;1.95;1.63;;;5.40;99.90;;;;;;6220460;23;20000;-93
2023/02/27 09:53:30;;;;;;;4.50;2.20;;;5.40;99.90;;;;;;6220657;23;20446;-94
2023/02/27 09:56:07;;;;;;;2.63;1.63;;;5.40;99.90;;;;;;6221300;23;20004;-94
2023/02/27 09:59:08;;;;;;;4.43;2.38;;;5.40;99.90;;;;;;6220834;23;20019;-93
2023/02/27 10:01:46;;;;;;;4.53;2.40;;;5.40;99.90;;;;;;6220426;23;19999;-93
2023/02/27 10:04:30;;;;;;;2.90;2.33;;;5.40;99.90;;;;;;6220187;23;20016;-93
2023/02/27 10:07:09;;;;;;;5.13;2.83;;;5.40;99.90;;;;;;6220126;23;20012;-91
2023/02/27 10:09:40;;;;;;;6.78;2.33;;;5.40;99.90;;;;;;6219740;23;20004;-92
2023/02/27 10:12:34;;;;;;;6.68;2.22;;;5.50;99.90;;;;;;6219978;23;20024;-92
2023/02/27 10:15:09;;;;;;;9.48;3.53;;;5.60;99.90;;;;;;6221225;23;20007;-93
2023/02/27 10:18:03;;;;;;;6.47;3.13;;;5.70;99.90;;;;;;6220361;23;20031;-93
2023/02/27 10:21:05;;;;;;;4.82;2.50;;;5.80;99.90;;;;;;6213815;23;20031;-93
2023/02/27 10:23:41;;;;;;;6.05;2.13;;;5.80;99.90;;;;;;6218193;23;20008;-93
2023/02/27 10:26:17;;;;;;;3.67;2.60;;;5.90;99.90;;;;;;6219877;23;20012;-94
2023/02/27 10:28:43;;;;;;;5.25;3.17;;;5.90;99.90;;;;;;6219875;23;20443;-93
2023/02/27 10:31:19;;;;;;;5.15;2.30;;;6.00;99.90;;;;;;6219801;23;20008;-93
2023/02/27 10:33:47;;;;;;;6.70;2.53;;;6.10;99.90;;;;;;6219390;23;20008;-92
2023/02/27 10:36:15;;;;;;;6.40;2.63;;;6.20;99.90;;;;;;6219562;23;20012;-94
2023/02/27 10:38:51;;;;;;;6.40;2.65;;;6.30;99.90;;;;;;6219618;23;20076;-94
2023/02/27 10:41:19;;;;;;;7.15;3.17;;;6.30;99.90;;;;;;6219884;23;20008;-92
2023/02/27 10:43:47;;;;;;;5.03;2.55;;;6.40;99.90;;;;;;6219642;23;20008;-92
2023/02/27 10:46:23;;;;;;;3.35;2.10;;;6.50;99.90;;;;;;6223504;23;20012;-94
2023/02/27 10:48:49;;;;;;;3.65;2.30;;;6.50;99.90;;;;;;6221798;23;20467;-93
2023/02/27 10:51:18;;;;;;;2.72;2.10;;;6.40;99.90;;;;;;6221183;23;20024;-93
2023/02/27 10:53:44;;;;;;;5.57;2.33;;;6.40;99.90;;;;;;6224657;23;20003;-93
2023/02/27 10:56:15;;;;;;;4.43;2.30;;;6.40;99.90;;;;;;6238369;23;20004;-93
2023/02/27 10:58:41;;;;;;;5.45;2.25;;;6.40;99.90;;;;;;6223652;23;20007;-92
2023/02/27 11:01:09;;;;;;;3.05;2.58;;;6.40;99.90;;;;;;6220370;23;20008;-92
2023/02/27 11:03:38;;;;;;;3.97;2.42;;;6.30;99.90;;;;;;6218894;23;20439;-92
2023/02/27 11:06:26;;;;;;;5.68;3.00;;;6.30;99.90;;;;;;6219029;23;20454;-92
2023/02/27 11:09:31;;;;;;;4.18;2.65;;;6.30;99.90;;;;;;6219744;23;20031;-92
2023/02/27 11:12:24;;;;;;;3.50;2.95;;;6.30;99.90;;;;;;6070361;23;20022;-92
2023/02/27 11:14:52;;;;;;;4.20;3.15;;;6.40;99.90;;;;;;6070921;23;20007;-92
2023/02/27 11:17:27;;;;;;;4.85;2.88;;;6.50;99.90;;;;;;6070694;23;20034;-92
2023/02/27 11:19:53;;;;;;;5.40;3.28;;;6.60;99.90;;;;;;6095534;23;20042;-92
2023/02/27 11:22:23;;;;;;;5.38;3.10;;;6.60;99.90;;;;;;6072140;23;20462;-92
2023/02/27 11:24:49;;;;;;;4.57;2.95;;;6.70;99.90;;;;;;6070804;23;20007;-92
2023/02/27 11:27:27;;;;;;;8.55;3.40;;;6.80;99.90;;;;;;6071943;23;20018;-91
2023/02/27 11:30:01;;;;;;;4.63;3.58;;;6.80;99.90;;;;;;6073930;23;20003;-93
2023/02/27 11:32:44;;;;;;;7.72;3.63;;;6.90;99.90;;;;;;6073357;23;20017;-92
2023/02/27 11:35:25;;;;;;;4.85;2.55;;;6.80;99.90;;;;;;6073662;23;20010;-92
2023/02/27 11:37:57;;;;;;;5.28;2.60;;;6.80;99.90;;;;;;6097731;23;20003;-92
2023/02/27 11:40:31;;;;;;;2.63;1.80;;;6.80;99.90;;;;;;6072187;23;20089;-92
2023/02/27 11:43:16;;;;;;;4.82;1.90;;;6.90;99.90;;;;;;6072994;23;20055;-92
2023/02/27 11:45:48;;;;;;;3.60;1.50;;;7.00;99.90;;;;;;6137196;23;20175;-93
2023/02/27 11:49:00;;;;;;;4.63;2.55;;;7.10;99.90;;;;;;6221636;23;20436;-92
2023/02/27 11:51:48;;;;;;;2.03;1.17;;;7.40;99.90;;;;;;6203856;23;20011;-92
2023/02/27 11:54:18;;;;;;;5.40;1.67;;;7.70;99.90;;;;;;6205242;23;20059;-92
2023/02/27 11:56:52;;;;;;;7.40;1.13;;;8.10;99.90;;;;;;6221456;23;20016;-93
2023/02/27 11:59:35;;;;;;;5.13;1.10;;;8.50;99.90;;;;;;6221992;23;20084;-93
2023/02/27 12:02:10;;;;;;;1.65;0.75;;;8.80;99.90;;;;;;6221570;23;20095;-92
2023/02/27 12:04:38;;;;;;;2.15;0.80;;;9.00;99.90;;;;;;6225256;23;20023;-94
2023/02/27 12:07:31;;;;;;;1.17;0.80;;;9.00;99.90;;;;;;6221503;23;20375;-93
2023/02/27 12:10:29;;;;;;;1.33;0.40;;;8.80;99.90;;;;;;6220990;23;20044;-92
2023/02/27 12:13:10;;;;;;;1.50;0.80;;;8.70;99.90;;;;;;6205291;23;20036;-95
2023/02/27 12:16:11;;;;;;;2.22;0.98;;;8.60;99.90;;;;;;6220699;23;20051;-93
2023/02/27 12:18:46;;;;;;;3.80;1.40;;;8.50;99.90;;;;;;6195219;23;20005;-94
2023/02/27 12:21:20;;;;;;;2.13;1.50;;;8.50;99.90;;;;;;6222243;23;20082;-93
2023/02/27 12:23:57;;;;;;;2.42;1.75;;;8.60;99.90;;;;;;6222938;23;20016;-92
2023/02/27 12:26:37;;;;;;;6.13;2.00;;;8.50;99.90;;;;;;6228334;23;20032;-94
2023/02/27 12:29:40;;;;;;;3.08;1.95;;;8.40;99.90;;;;;;6235470;23;20004;-93
2023/02/27 12:32:15;;;;;;;5.13;2.60;;;8.30;99.90;;;;;;6238391;23;20005;-92
2023/02/27 12:34:49;;;;;;;6.93;3.72;;;8.30;99.90;;;;;;6235662;23;20000;-92
2023/02/27 12:37:23;;;;;;;3.88;2.70;;;8.10;99.90;;;;;;6242405;23;20008;-91
2023/02/27 12:39:51;;;;;;;11.02;3.33;;;8.00;99.90;;;;;;6239896;23;20478;-92
2023/02/27 12:42:20;;;;;;;8.00;2.50;;;7.90;99.90;;;;;;6227120;23;20034;-94
2023/02/27 12:45:03;;;;;;;4.28;2.40;;;7.80;99.90;;;;;;6223022;23;20008;-93
2023/02/27 12:47:41;;;;;;;5.57;2.00;;;7.70;99.90;;;;;;6225600;23;20016;-92
2023/02/27 12:50:19;;;;;;;4.35;1.92;;;7.70;99.90;;;;;;6232958;23;20038;-93
2023/02/27 12:53:00;;;;;;;5.15;1.85;;;7.60;99.90;;;;;;6221570;23;20091;-94
2023/02/27 12:55:38;;;;;;;;;;;7.60;99.90;;;;;;6221018;23;20000;-93
2023/02/27 12:58:13;;;;;;;3.30;1.70;;;7.60;99.90;;;;;;6221128;23;19974;-94
2023/02/27 13:00:54;;;;;;;4.28;1.52;;;7.60;99.90;;;;;;6220938;23;20008;-94
2023/02/27 13:03:42;;;;;;;1.83;1.63;;;7.60;99.90;;;;;;6246986;23;20061;-95
2023/02/27 13:06:26;;;;;;;2.67;1.42;;;7.80;99.90;;;;;;6221006;23;20012;-94
2023/02/27 13:09:07;;;;;;;1.85;1.30;;;8.30;99.90;;;;;;6220431;23;20012;-93
2023/02/27 13:11:36;;;;;;;6.00;1.23;;;9.30;99.90;;;;;;6220499;23;20012;-94
2023/02/27 13:14:35;;;;;;;4.47;1.50;;;9.90;99.90;;;;;;6220413;23;20016;-95
2023/02/27 13:17:09;;;;;;;2.80;1.10;;;10.20;99.90;;;;;;6220708;23;20004;-94
2023/02/27 13:19:43;;;;;;;4.97;1.00;;;10.20;99.90;;;;;;6220942;23;20004;-94
2023/02/27 13:22:40;;;;;;;3.92;1.30;;;10.10;99.90;;;;;;6221854;23;20522;-92
2023/02/27 13:25:13;;;;;;;6.10;1.42;;;9.80;99.90;;;;;;6221772;23;20446;-93
2023/02/27 13:28:01;;;;;;;1.58;0.95;;;9.50;99.90;;;;;;6221780;23;20073;-94